Chestnut Ridge, PA

7:38 AM EST on November 28, 2014 (GMT -0500)
Arnold Palmer Regional | Change Station
CLOSE
Current Station
Airport
Location: Latrobe,
Elevation: 1184 ft
Nearby Weather Stations
Active Advisory: Special Statement Active Notice: Public Information Statement

Elev 1184 ft 40.28 °N, 79.40 °W | Updated 53 minutes ago

Overcast
Overcast
27 °F
Feels Like 19 °F
N
7
Wind Variable Wind from West

Today
High -- | Low -- °F
--% Chance of Precip.
Yesterday
High -- | Low -- °F
Precip. -- in
7:18 AM 4:55 PM
Waxing Crescent, 40% visible
Pressure 30.30 in
Visibility 6.0 miles
Clouds Mostly Cloudy 3000 ft
Overcast 4500 ft
Windchill 19 °F
Dew Point 23 °F
Humidity 86%
Rainfall 0.00 in
Snow Depth Not available.
UV 0 out of 12
Pollen .10 out of 12
Air Quality Not available.
Flu Activity Not available.
METAR KLBE 281145Z 28006KT 6SM -SN BKN030 OVC045 M03/M05 A3030

More Conditions Fewer Conditions

Pressure 30.30 in
Visibility 6.0 miles
Clouds Mostly Cloudy 3000 ft
Overcast 4500 ft
Windchill 19 °F
Dew Point 23 °F
Humidity 86%
Rainfall 0.00 in
Snow Depth Not available.
UV 0 out of 12
Pollen .10 out of 12
Air Quality Not available.
Flu Activity Not available.
METAR KLBE 281145Z 28006KT 6SM -SN BKN030 OVC045 M03/M05 A3030

More Conditions Fewer Conditions

10-Day Weather Forecast

Almanac

Astronomy

Nov. 28, 2014 Rise Set
Actual Time
Civil Twilight
Nautical Twilight
Astronomical Twilight
Moon
Length of Visible Light
Length of Day
Tomorrow will be .
, % of the Moon is Illuminated

Today's Extremes

State Highs State Lows

Community

WunderPhotos

Upload Photos

1,774,199 photos uploaded!

WunderBlogs® & News

Nearby

Air Quality

  Air Quality AQ Index Pollutant
Not available.

Snow Depth

Station Depth Elevation

Earthquake Activity

City Distance Mag. Time & Date
Minimum magnitude displayed is 2.5.

Coastal Water Temperatures

Place Temperature

Nearby Weather Stations